To NAV CANADA Home Page Login to a new session Search on AWWS site Feedback and Comments Disclaimer Vers la page française équivalente Tips FAQ What's new on the site To the Forecasts and Observations / NOTAM section To "File a Flight Plan" website Publications and other links Update of the User's profile FIC Telephone Numbers My Weather Data Folder Route Weather Data Regional Weather Data Local Weather Data To the Forecasts and Observations / NOTAM section
Request Generated 04/30/2017 at 20:31:17 UTC . Weather information available at that time is displayed.

METAR/TAF

QUAQTAQ/QC    

METAR CYHA 302000Z 30012KT 15SM FEW026 M10/M15 A2999 RMK SC2 SLP162=
METAR CYHA 301900Z 29013G20KT 15SM DRSN FEW026 M10/M15 A2999 RMK SC1
SLP161=
METAR CYHA 301800Z 30013KT 15SM FEW030 SCT040 M10/M15 A3000 RMK
SC2SC2 SLP164=

TAF CYHA 301338Z 3014/3021 30015G25KT P6SM -SN BKN025 TEMPO 3014/3021
3SM -SN OVC020
RMK NXT FCST WILL BE ISSUED AT 011345Z=
Your time UTC time
Weather data provided by Environment Canada and NAV CANADA